SBSJ

Professor Urbano Ernesto Stumpf Airport

São José Dos Campos, Brazil
TAF SBSJ 231500Z 2318/2418 14010KT 9999 SCT030 TN16/2407Z TX28/2417Z BECMG 2404/2406 00000KT SCT010 PROB40 2407/2411 3000 BR BKN008 BECMG 2412/ 2414 04005KT FEW025 BECMG 2415/2417 08005KT SCT040 RMK PHD
Issued Valid From Valid To
Apr-23 @ 15:00 UTC
(8 hours ago)
Apr-23 @ 18:00 UTC
(5 hours ago)
Apr-24 @ 18:00 UTC
(in 19 hours)
Apr-23 @ 18:00 to Apr-24 @ 04:00
TAF SBSJ 231500Z 2318/2418 14010KT 9999 SCT030 TN16/2407Z TX28/2417Z
Wind Visibility Clouds
140° at 10 knots 10,000+ meters
  • Scattered at 3,000' AGL
Becoming Apr-24 @ 04:00 to Apr-24 @ 15:00
BECMG 2404/2406 00000KT SCT010
Visibility Clouds
10,000+ meters
  • Scattered at 1,000' AGL
Probable  (Probability 40%) Apr-24 @ 07:00 to Apr-24 @ 11:00
PROB40 2407/2411 3000 BR BKN008
Visibility Clouds Conditions
2,993 meters
  • Broken at 800' AGL
  • Mist
Becoming Apr-24 @ 15:00 to Apr-24 @ 18:00
BECMG 2415/2417 08005KT SCT040 RMK PHD
Wind Visibility Clouds
80° at 5 knots 10,000+ meters
  • Scattered at 4,000' AGL
TAF SBSJ 231500Z 2318/2418 14010KT 9999 SCT030 TN16/2407Z TX28/2417Z BECMG 2404/2406 00000KT SCT010 PROB40 2407/2411 3000 BR BKN008 BECMG 2412/ 2414 04005KT FEW025 BECMG 2415/2417 08005KT SCT040 RMK PHD
Issued Apr-23 @ 15:00 UTC
(8 hours ago)
Valid From Apr-23 @ 18:00 UTC
(5 hours ago)
Valid To Apr-24 @ 18:00 UTC
(in 19 hours)
Apr-23 @ 18:00 - Apr-24 @ 04:00
Wind Visibility
140° at 10 knots 10,000+ meters
Clouds
  • Scattered at 3,000' AGL
Becoming Apr-24 @ 04:00 - Apr-24 @ 15:00
Clouds
  • Scattered at 1,000' AGL
Probability 40% Probable Apr-24 @ 07:00 - Apr-24 @ 11:00
Clouds
  • Broken at 800' AGL
Conditions
  • Mist
Becoming Apr-24 @ 15:00 - Apr-24 @ 18:00
Wind Visibility
80° at 5 knots 10,000+ meters
Clouds
  • Scattered at 4,000' AGL